Time;durP1;ratioP1;P1;durP2;ratioP2;P2;SDS_P1;SDS_P2;PMS_P1;PMS_P2;Temp;Humidity;BMP_temperature;BMP_pressure;BME280_temperature;BME280_humidity;BME280_pressure;Samples;Min_cycle;Max_cycle;Signal;HPM_P1;HPM_P2
2022/03/30 00:00:14;;;;;;;37.20;16.27;;;5.20;99.90;;;;;;5090528;27;20076;-79
2022/03/30 00:02:40;;;;;;;33.10;15.80;;;5.20;99.90;;;;;;5110926;27;20043;-79
2022/03/30 00:05:06;;;;;;;28.55;14.75;;;5.30;99.90;;;;;;5097452;28;20079;-81
2022/03/30 00:07:32;;;;;;;39.38;16.75;;;5.20;99.90;;;;;;5120981;27;20406;-80
2022/03/30 00:10:04;;;;;;;34.75;16.00;;;5.20;99.90;;;;;;5124102;27;20062;-81
2022/03/30 00:12:30;;;;;;;39.58;17.20;;;5.20;99.90;;;;;;5112818;28;20067;-82
2022/03/30 00:14:56;;;;;;;39.50;18.00;;;5.60;99.90;;;;;;5095874;27;20405;-81
2022/03/30 00:17:22;;;;;;;33.75;16.52;;;5.20;99.90;;;;;;5105713;27;20034;-81
2022/03/30 00:19:48;;;;;;;37.45;17.13;;;5.20;99.90;;;;;;5114991;28;20047;-78
2022/03/30 00:22:14;;;;;;;36.10;17.08;;;5.20;99.90;;;;;;5114840;27;20039;-79
2022/03/30 00:24:43;;;;;;;35.65;17.23;;;5.60;99.90;;;;;;5120204;27;20594;-80
2022/03/30 00:27:12;;;;;;;39.92;17.85;;;5.20;99.90;;;;;;5102395;27;20107;-82
2022/03/30 00:29:38;;;;;;;36.22;17.05;;;5.20;99.90;;;;;;5113643;28;20043;-79
2022/03/30 00:32:06;;;;;;;37.75;17.08;;;5.20;99.90;;;;;;5114161;27;20485;-82
2022/03/30 00:34:32;;;;;;;42.00;17.67;;;5.20;99.90;;;;;;5132444;28;20039;-81
2022/03/30 00:36:58;;;;;;;38.35;17.85;;;5.60;99.90;;;;;;5115961;27;20047;-81
2022/03/30 00:39:23;;;;;;;41.55;19.25;;;5.50;99.90;;;;;;5120377;27;20042;-82
2022/03/30 00:41:49;;;;;;;40.53;18.90;;;5.20;99.90;;;;;;5125096;27;20051;-81
2022/03/30 00:44:15;;;;;;;40.83;19.00;;;5.20;99.90;;;;;;5108272;27;20507;-79
2022/03/30 00:46:44;;;;;;;46.42;19.20;;;5.20;99.90;;;;;;5116775;27;20035;-81
2022/03/30 00:49:11;;;;;;;44.00;18.48;;;5.20;99.90;;;;;;5127655;27;20039;-80
2022/03/30 00:51:37;;;;;;;38.53;18.10;;;5.10;99.90;;;;;;5113507;27;20066;-79
2022/03/30 00:54:03;;;;;;;41.10;17.88;;;5.10;99.90;;;;;;5101949;27;20069;-81
2022/03/30 00:56:32;;;;;;;38.33;18.02;;;5.10;99.90;;;;;;5125211;27;20074;-78
2022/03/30 00:59:05;;;;;;;40.53;17.35;;;5.10;99.90;;;;;;5099790;27;20133;-77
2022/03/30 01:01:32;;;;;;;36.63;16.77;;;5.10;99.90;;;;;;5115458;27;20046;-79
2022/03/30 01:03:58;;;;;;;36.55;16.42;;;5.10;99.90;;;;;;5128557;27;20023;-79
2022/03/30 01:06:23;;;;;;;41.75;16.77;;;5.10;99.90;;;;;;5104918;27;20067;-78
2022/03/30 01:08:50;;;;;;;38.42;16.70;;;5.20;99.90;;;;;;5105734;27;20046;-77
2022/03/30 01:11:16;;;;;;;40.38;17.08;;;5.20;99.90;;;;;;5103375;27;20039;-78
2022/03/30 01:13:42;;;;;;;31.95;16.20;;;5.20;99.90;;;;;;5117158;27;20042;-82
2022/03/30 01:16:08;;;;;;;37.58;16.35;;;5.20;99.90;;;;;;5116281;27;20034;-79
2022/03/30 01:18:40;;;;;;;36.53;16.48;;;5.20;99.90;;;;;;5112540;27;20035;-76
2022/03/30 01:21:08;;;;;;;36.35;15.43;;;5.20;99.90;;;;;;5103053;27;20055;-78
2022/03/30 01:23:34;;;;;;;42.17;15.98;;;5.20;99.90;;;;;;5095184;27;20036;-80
2022/03/30 01:26:03;;;;;;;35.40;16.50;;;5.30;99.90;;;;;;5114302;27;20453;-78
2022/03/30 01:28:31;;;;;;;33.55;15.65;;;5.30;99.90;;;;;;5106390;27;20399;-78
2022/03/30 01:33:45;;;;;;;36.47;15.95;;;5.40;99.90;;;;;;5112417;27;20043;-80
2022/03/30 01:36:12;;;;;;;35.95;15.75;;;5.40;99.90;;;;;;5116450;27;20049;-78
2022/03/30 01:38:37;;;;;;;44.42;17.33;;;5.50;99.90;;;;;;5104564;27;20039;-78
2022/03/30 01:41:04;;;;;;;40.10;17.65;;;5.30;99.90;;;;;;5107682;28;20367;-79
2022/03/30 01:43:30;;;;;;;38.90;17.10;;;5.30;99.90;;;;;;5109647;27;20037;-76
2022/03/30 01:45:56;;;;;;;41.92;17.40;;;5.40;99.90;;;;;;5113062;27;20106;-76
2022/03/30 01:48:22;;;;;;;44.70;17.42;;;5.30;99.90;;;;;;5093131;27;20051;-79
2022/03/30 01:50:47;;;;;;;38.53;17.15;;;5.30;99.90;;;;;;5106822;27;20441;-82
2022/03/30 01:53:14;;;;;;;38.40;16.40;;;5.30;99.90;;;;;;5115469;27;20057;-78
2022/03/30 01:55:40;;;;;;;38.65;17.50;;;5.30;99.90;;;;;;5086769;27;20051;-84
2022/03/30 01:58:06;;;;;;;47.42;17.65;;;5.30;99.90;;;;;;5107825;27;20042;-81
2022/03/30 02:00:31;;;;;;;39.58;16.73;;;5.20;99.90;;;;;;5115208;27;20053;-84
2022/03/30 02:02:58;;;;;;;37.88;16.60;;;5.20;99.90;;;;;;5095105;27;20039;-84
2022/03/30 02:05:24;;;;;;;39.55;16.98;;;5.30;99.90;;;;;;5112131;27;20035;-80
2022/03/30 02:07:50;;;;;;;41.00;16.50;;;5.20;99.90;;;;;;5090902;27;20121;-80
2022/03/30 02:10:16;;;;;;;40.05;16.17;;;5.30;99.90;;;;;;5133136;27;20035;-80
2022/03/30 02:12:42;;;;;;;45.85;16.08;;;5.20;99.90;;;;;;5119931;27;20031;-80
2022/03/30 02:15:10;;;;;;;44.67;17.48;;;5.30;99.90;;;;;;5145647;27;20046;-80
2022/03/30 02:17:37;;;;;;;37.10;17.58;;;5.30;99.90;;;;;;5098144;27;20075;-78
2022/03/30 02:20:05;;;;;;;33.97;16.25;;;5.40;99.90;;;;;;5117255;27;20057;-79
2022/03/30 02:22:30;;;;;;;44.17;16.08;;;5.40;99.90;;;;;;5098780;27;20039;-80
2022/03/30 02:24:56;;;;;;;34.58;16.13;;;5.40;99.90;;;;;;5100218;27;20494;-79
2022/03/30 02:27:22;;;;;;;36.85;14.65;;;5.40;99.90;;;;;;5122427;27;20053;-83
2022/03/30 02:29:50;;;;;;;32.40;15.05;;;5.50;99.90;;;;;;5115061;27;20067;-83
2022/03/30 02:32:16;;;;;;;31.67;13.65;;;5.50;99.90;;;;;;5115962;27;20043;-83
2022/03/30 02:34:42;;;;;;;28.20;11.93;;;5.50;99.90;;;;;;5116288;27;20099;-76
2022/03/30 02:37:11;;;;;;;18.35;9.15;;;5.50;99.90;;;;;;5119963;27;20027;-78
2022/03/30 02:39:37;;;;;;;10.32;5.22;;;5.50;99.90;;;;;;5106876;27;20113;-82
2022/03/30 02:42:03;;;;;;;12.73;4.47;;;5.50;99.90;;;;;;5099881;27;20043;-77
2022/03/30 02:44:29;;;;;;;11.73;3.50;;;5.60;99.90;;;;;;5118520;27;20042;-83
2022/03/30 02:46:55;;;;;;;9.75;3.13;;;5.60;99.90;;;;;;5116446;27;20379;-78
2022/03/30 02:49:21;;;;;;;5.75;2.63;;;5.70;99.90;;;;;;5132675;27;20042;-78
2022/03/30 02:51:46;;;;;;;9.40;2.90;;;5.50;99.90;;;;;;5099719;27;20039;-76
2022/03/30 02:54:12;;;;;;;4.45;1.65;;;5.60;99.90;;;;;;5109487;27;20190;-80
2022/03/30 02:56:38;;;;;;;12.05;2.13;;;5.60;99.90;;;;;;5104985;27;20043;-81
2022/03/30 02:59:04;;;;;;;6.40;1.88;;;5.60;99.90;;;;;;5125032;27;20035;-78
2022/03/30 03:01:29;;;;;;;2.85;1.05;;;5.60;99.90;;;;;;5123275;27;20039;-80
2022/03/30 03:03:55;;;;;;;2.72;1.00;;;5.60;99.90;;;;;;5103449;27;20043;-80
2022/03/30 03:06:21;;;;;;;3.05;0.90;;;5.60;99.90;;;;;;5115321;27;20036;-80
2022/03/30 03:08:47;;;;;;;7.05;1.20;;;5.80;99.90;;;;;;5126109;27;20039;-81
2022/03/30 03:11:13;;;;;;;4.68;1.08;;;5.60;99.90;;;;;;5111762;27;20036;-81
2022/03/30 03:13:38;;;;;;;3.00;0.93;;;5.60;99.90;;;;;;5101980;27;20111;-82
2022/03/30 03:16:05;;;;;;;4.00;0.98;;;5.60;99.90;;;;;;5122221;27;20035;-80
2022/03/30 03:18:31;;;;;;;10.93;1.00;;;5.40;99.90;;;;;;5099288;27;20040;-79
2022/03/30 03:20:57;;;;;;;7.65;0.95;;;5.60;99.90;;;;;;5137817;27;20039;-82
2022/03/30 03:23:23;;;;;;;2.80;0.80;;;5.40;99.90;;;;;;5140641;27;20046;-78
2022/03/30 03:25:48;;;;;;;1.50;0.63;;;5.40;99.90;;;;;;5103650;27;20221;-80
2022/03/30 03:28:15;;;;;;;2.67;0.70;;;5.40;99.90;;;;;;5107597;27;20047;-84
2022/03/30 03:30:42;;;;;;;4.10;0.80;;;5.40;99.90;;;;;;5118155;27;20059;-79
2022/03/30 03:33:08;;;;;;;1.50;0.60;;;5.40;99.90;;;;;;5096896;27;20123;-78
2022/03/30 03:35:35;;;;;;;7.05;0.60;;;5.50;99.90;;;;;;5125568;27;20039;-81
2022/03/30 03:38:01;;;;;;;2.05;0.50;;;5.30;99.90;;;;;;5122408;27;20151;-79
2022/03/30 03:40:30;;;;;;;0.93;0.60;;;5.40;99.90;;;;;;5099457;27;20054;-81
2022/03/30 03:42:57;;;;;;;4.32;0.50;;;5.40;99.90;;;;;;5115780;27;20441;-79
2022/03/30 03:45:23;;;;;;;2.63;0.85;;;5.30;99.90;;;;;;5115921;27;20036;-77
2022/03/30 03:47:49;;;;;;;1.42;0.68;;;5.30;99.90;;;;;;5103368;27;20159;-81
2022/03/30 03:50:15;;;;;;;1.40;0.43;;;5.70;99.90;;;;;;5114739;27;20122;-81
2022/03/30 03:52:41;;;;;;;2.38;0.40;;;5.20;99.90;;;;;;5100982;27;20051;-79
2022/03/30 03:55:07;;;;;;;5.50;0.70;;;5.30;99.90;;;;;;5113990;27;20115;-82
2022/03/30 03:57:34;;;;;;;1.67;0.40;;;5.20;99.90;;;;;;5121522;27;20477;-81
2022/03/30 04:00:02;;;;;;;2.03;0.30;;;5.10;99.90;;;;;;5094878;28;20448;-79
2022/03/30 04:02:28;;;;;;;3.45;0.57;;;5.10;99.90;;;;;;5114132;27;20393;-80
2022/03/30 04:04:53;;;;;;;1.63;0.38;;;5.20;99.90;;;;;;5113342;27;20123;-77
2022/03/30 04:07:19;;;;;;;1.80;0.40;;;5.20;99.90;;;;;;5125514;27;20035;-80
2022/03/30 04:09:45;;;;;;;0.85;0.30;;;5.00;99.90;;;;;;5122118;28;20149;-78
2022/03/30 04:12:10;;;;;;;1.35;0.47;;;5.00;99.90;;;;;;5129391;27;20399;-81
2022/03/30 04:14:36;;;;;;;2.28;0.43;;;5.10;99.90;;;;;;5122707;27;20034;-78
2022/03/30 04:17:02;;;;;;;1.00;0.43;;;5.00;99.90;;;;;;5123533;27;20450;-83
2022/03/30 04:19:27;;;;;;;1.20;0.50;;;5.10;99.90;;;;;;5100756;27;20043;-82
2022/03/30 04:21:53;;;;;;;2.58;0.65;;;5.00;99.90;;;;;;5121542;27;20038;-81
2022/03/30 04:24:19;;;;;;;2.35;0.65;;;5.00;99.90;;;;;;5101053;27;20050;-75
2022/03/30 04:26:44;;;;;;;1.55;0.60;;;5.50;99.90;;;;;;5101343;27;20043;-79
2022/03/30 04:29:10;;;;;;;2.22;0.80;;;5.00;99.90;;;;;;5123856;27;20035;-82
2022/03/30 04:31:36;;;;;;;2.10;0.68;;;5.00;99.90;;;;;;5106476;27;20373;-80
2022/03/30 04:34:01;;;;;;;1.88;0.90;;;4.80;99.90;;;;;;5122203;27;20039;-78
2022/03/30 04:36:28;;;;;;;2.38;0.80;;;4.80;99.90;;;;;;5120202;27;20440;-82
2022/03/30 04:38:53;;;;;;;2.33;0.75;;;4.90;99.90;;;;;;5116175;27;20049;-82
2022/03/30 04:41:19;;;;;;;3.47;1.00;;;4.80;99.90;;;;;;5101512;27;20039;-79
2022/03/30 04:43:45;;;;;;;3.45;0.90;;;4.80;99.90;;;;;;5100934;27;20141;-77
2022/03/30 04:46:12;;;;;;;3.42;1.10;;;4.80;99.90;;;;;;5104933;27;20042;-80
2022/03/30 04:48:38;;;;;;;1.65;0.88;;;4.80;99.90;;;;;;5099728;27;20418;-80
2022/03/30 04:51:04;;;;;;;4.45;0.88;;;4.80;99.90;;;;;;5104143;27;20050;-76
2022/03/30 04:53:30;;;;;;;2.80;0.93;;;4.80;99.90;;;;;;5112862;27;20043;-78
2022/03/30 04:55:55;;;;;;;3.33;1.20;;;4.70;99.90;;;;;;5101332;27;20043;-79
2022/03/30 04:58:21;;;;;;;2.97;1.00;;;5.20;99.90;;;;;;5121604;27;20134;-78
2022/03/30 05:00:48;;;;;;;3.55;1.05;;;4.80;99.90;;;;;;5117322;27;20043;-82
2022/03/30 05:03:13;;;;;;;2.85;1.05;;;4.70;99.90;;;;;;5105779;27;20031;-79
2022/03/30 05:05:39;;;;;;;2.92;1.13;;;4.70;99.90;;;;;;5109047;27;20391;-78
2022/03/30 05:08:05;;;;;;;3.90;1.20;;;4.70;99.90;;;;;;5124074;27;20037;-79
2022/03/30 05:10:31;;;;;;;5.78;1.27;;;4.60;99.90;;;;;;5095284;27;20072;-80
2022/03/30 05:12:58;;;;;;;2.40;1.10;;;4.60;99.90;;;;;;5101731;27;20039;-82
2022/03/30 05:15:24;;;;;;;3.58;1.50;;;4.60;99.90;;;;;;5117559;27;20043;-78
2022/03/30 05:17:49;;;;;;;2.05;0.93;;;4.60;99.90;;;;;;5098852;27;20558;-81
2022/03/30 05:20:17;;;;;;;5.40;1.30;;;4.90;99.90;;;;;;5092296;27;20035;-81
2022/03/30 05:22:46;;;;;;;3.53;1.20;;;4.80;99.90;;;;;;5097002;27;20094;-80
2022/03/30 05:25:15;;;;;;;3.50;1.30;;;4.50;99.90;;;;;;5109902;27;20112;-80
2022/03/30 05:27:42;;;;;;;4.30;1.35;;;4.60;99.90;;;;;;5113867;27;20042;-78
2022/03/30 05:30:09;;;;;;;4.97;1.33;;;4.50;99.90;;;;;;5095769;27;20035;-82
2022/03/30 05:32:35;;;;;;;8.00;1.30;;;4.50;99.90;;;;;;5116444;27;20163;-79
2022/03/30 05:35:02;;;;;;;3.28;1.20;;;4.50;99.90;;;;;;5107515;27;20048;-77
2022/03/30 05:37:30;;;;;;;2.15;1.20;;;4.60;99.90;;;;;;5104520;27;20124;-79
2022/03/30 05:39:56;;;;;;;4.05;1.20;;;4.50;99.90;;;;;;5097216;27;20489;-79
2022/03/30 05:42:22;;;;;;;6.05;1.25;;;4.60;99.90;;;;;;5130342;27;20106;-80
2022/03/30 05:44:49;;;;;;;5.43;1.27;;;4.50;99.90;;;;;;5114943;27;20039;-77
2022/03/30 05:47:16;;;;;;;5.13;1.38;;;4.50;99.90;;;;;;5112122;27;20038;-80
2022/03/30 05:49:42;;;;;;;3.95;1.60;;;4.50;99.90;;;;;;5112290;27;20035;-77
2022/03/30 05:52:08;;;;;;;4.25;1.60;;;4.60;99.90;;;;;;5110527;27;20088;-80
2022/03/30 05:54:35;;;;;;;5.57;1.30;;;4.60;99.90;;;;;;5117344;27;20043;-76
2022/03/30 05:57:01;;;;;;;3.13;1.17;;;4.60;99.90;;;;;;5101736;27;20054;-77
2022/03/30 05:59:32;;;;;;;4.78;1.40;;;4.60;99.90;;;;;;5104034;27;20482;-78
2022/03/30 06:01:59;;;;;;;8.73;1.75;;;4.60;99.90;;;;;;5115752;27;20153;-78
2022/03/30 06:04:26;;;;;;;3.90;1.42;;;4.60;99.90;;;;;;5098956;27;20450;-77
2022/03/30 06:06:52;;;;;;;6.65;1.60;;;4.70;99.90;;;;;;5104783;27;20439;-78
2022/03/30 06:09:18;;;;;;;2.72;1.50;;;4.70;99.90;;;;;;5112876;27;20122;-78
2022/03/30 06:11:44;;;;;;;3.38;1.45;;;5.00;99.90;;;;;;5114189;27;20031;-78
2022/03/30 06:14:10;;;;;;;7.00;1.52;;;4.90;99.90;;;;;;5116188;27;20047;-79
2022/03/30 06:16:37;;;;;;;7.57;1.70;;;4.90;99.90;;;;;;5094791;27;20347;-77
2022/03/30 06:19:02;;;;;;;6.65;1.65;;;4.90;99.90;;;;;;5097009;27;20064;-77
2022/03/30 06:21:29;;;;;;;4.82;1.75;;;4.90;99.90;;;;;;5101209;27;20130;-82
2022/03/30 06:24:01;;;;;;;6.97;1.83;;;4.80;99.90;;;;;;5130286;27;20130;-84
2022/03/30 06:26:28;;;;;;;9.20;1.80;;;4.90;99.90;;;;;;5126136;27;20057;-76
2022/03/30 06:28:54;;;;;;;7.38;1.88;;;5.00;99.90;;;;;;5114474;27;20042;-78
2022/03/30 06:31:20;;;;;;;7.00;1.70;;;5.00;99.90;;;;;;5112993;27;20072;-77
2022/03/30 06:33:47;;;;;;;8.10;1.85;;;5.00;99.90;;;;;;5116152;27;20043;-78
2022/03/30 06:36:13;;;;;;;5.68;1.60;;;4.90;99.90;;;;;;5111526;27;20049;-75
2022/03/30 06:38:41;;;;;;;4.30;1.60;;;5.00;99.90;;;;;;5093648;27;20143;-78
2022/03/30 06:41:09;;;;;;;6.30;1.63;;;5.10;99.90;;;;;;5116427;27;20066;-79
2022/03/30 06:43:36;;;;;;;5.78;2.03;;;5.00;99.90;;;;;;5118615;27;20495;-78
2022/03/30 06:46:03;;;;;;;7.95;2.08;;;5.10;99.90;;;;;;5117363;27;20035;-78
2022/03/30 06:48:30;;;;;;;4.38;1.65;;;5.20;99.90;;;;;;5100036;27;20105;-81
2022/03/30 06:50:57;;;;;;;10.32;1.67;;;5.20;99.90;;;;;;5117710;27;20505;-79
2022/03/30 06:53:23;;;;;;;10.43;2.40;;;5.20;99.90;;;;;;5099222;27;20249;-81
2022/03/30 06:55:48;;;;;;;10.35;2.20;;;5.30;99.90;;;;;;5093281;27;20545;-79
2022/03/30 06:58:14;;;;;;;10.52;1.70;;;5.30;99.90;;;;;;5133368;27;20045;-80
2022/03/30 07:00:40;;;;;;;6.32;1.60;;;5.40;99.90;;;;;;5114387;27;20538;-79
2022/03/30 07:03:05;;;;;;;6.00;1.52;;;5.40;99.90;;;;;;5112637;27;20035;-78
2022/03/30 07:05:32;;;;;;;6.35;1.42;;;5.40;99.90;;;;;;5099664;27;20451;-80
2022/03/30 07:10:42;;;;;;;5.95;1.50;;;5.60;99.90;;;;;;5112318;27;20039;-80
2022/03/30 07:13:08;;;;;;;6.53;1.45;;;5.60;99.90;;;;;;5097695;27;20113;-75
2022/03/30 07:19:14;;;;;;;5.03;1.45;;;5.80;99.90;;;;;;5135298;27;20047;-78
2022/03/30 07:21:40;;;;;;;6.97;1.40;;;5.80;99.90;;;;;;5140075;27;20031;-77
2022/03/30 07:24:06;;;;;;;7.60;1.30;;;5.90;99.90;;;;;;5124804;27;20107;-78
2022/03/30 07:26:31;;;;;;;5.38;1.40;;;6.00;99.90;;;;;;5125080;27;20421;-77
2022/03/30 07:28:57;;;;;;;5.32;1.77;;;6.00;99.90;;;;;;5102798;27;20382;-81
2022/03/30 07:31:23;;;;;;;3.83;1.00;;;6.00;99.90;;;;;;5112455;27;20051;-80
2022/03/30 07:33:48;;;;;;;5.00;1.05;;;6.10;99.90;;;;;;5112204;27;20082;-82
2022/03/30 07:36:14;;;;;;;7.07;1.30;;;6.10;99.90;;;;;;5114002;27;20046;-82
2022/03/30 07:38:40;;;;;;;9.73;1.67;;;6.30;99.90;;;;;;5113595;27;20540;-82
2022/03/30 07:41:06;;;;;;;9.55;1.50;;;6.40;99.90;;;;;;5112903;27;20035;-79
2022/03/30 07:43:31;;;;;;;6.82;1.33;;;6.40;99.90;;;;;;5113051;27;20398;-80
2022/03/30 07:45:57;;;;;;;6.57;1.38;;;6.50;99.90;;;;;;5108690;27;20503;-82
2022/03/30 07:48:23;;;;;;;5.70;1.48;;;6.40;99.90;;;;;;5107753;28;20433;-81
2022/03/30 07:50:49;;;;;;;10.85;1.30;;;6.50;99.90;;;;;;5113258;27;20055;-79
2022/03/30 07:53:15;;;;;;;7.57;1.23;;;6.40;99.90;;;;;;5114950;27;20363;-78
2022/03/30 07:55:40;;;;;;;7.85;0.90;;;6.50;99.90;;;;;;5128201;27;20115;-79
2022/03/30 07:58:06;;;;;;;11.02;1.38;;;6.60;99.90;;;;;;5113762;27;20452;-74
2022/03/30 08:00:32;;;;;;;5.55;0.95;;;6.70;99.90;;;;;;5115174;27;20082;-79
2022/03/30 08:02:59;;;;;;;9.57;1.17;;;6.60;99.90;;;;;;5119487;27;20069;-76
2022/03/30 08:05:25;;;;;;;8.85;1.30;;;6.40;99.90;;;;;;5118349;27;20549;-76
2022/03/30 08:07:51;;;;;;;4.30;1.08;;;6.40;99.90;;;;;;5115119;27;20126;-80
2022/03/30 08:10:17;;;;;;;4.63;1.20;;;6.40;99.90;;;;;;5111302;27;20120;-83
2022/03/30 08:12:44;;;;;;;6.25;1.02;;;6.50;99.90;;;;;;5093378;28;20508;-77
2022/03/30 08:15:12;;;;;;;5.38;1.20;;;6.40;99.90;;;;;;5111969;28;20511;-77
2022/03/30 08:17:38;;;;;;;6.68;1.15;;;6.30;99.90;;;;;;5098718;28;20091;-81
2022/03/30 08:20:04;;;;;;;6.82;1.17;;;6.20;99.90;;;;;;5091893;27;20136;-84
2022/03/30 08:22:31;;;;;;;7.03;1.30;;;6.20;99.90;;;;;;5112316;28;20394;-79
2022/03/30 08:25:07;;;;;;;5.97;1.10;;;6.20;99.90;;;;;;5126446;28;20080;-80
2022/03/30 08:27:34;;;;;;;3.42;1.00;;;6.30;99.90;;;;;;5094264;28;20470;-80
2022/03/30 08:30:00;;;;;;;7.10;1.08;;;6.20;99.90;;;;;;5104869;28;20042;-80
2022/03/30 08:32:26;;;;;;;3.28;0.98;;;6.30;99.90;;;;;;5109356;28;20051;-81
2022/03/30 08:34:54;;;;;;;9.80;1.35;;;6.70;99.90;;;;;;5119432;28;20043;-79
2022/03/30 08:37:21;;;;;;;11.18;1.45;;;6.40;99.90;;;;;;5127349;28;20035;-82
2022/03/30 08:39:48;;;;;;;5.82;1.20;;;6.40;99.90;;;;;;5090656;28;20073;-78
2022/03/30 08:42:15;;;;;;;5.80;0.98;;;6.60;99.90;;;;;;5094022;28;20386;-81
2022/03/30 08:44:41;;;;;;;7.82;1.10;;;6.60;99.90;;;;;;5094882;28;20073;-84
2022/03/30 08:47:09;;;;;;;5.15;1.00;;;6.60;99.90;;;;;;5094688;28;20479;-82
2022/03/30 08:49:37;;;;;;;5.28;0.70;;;6.60;99.90;;;;;;5095807;28;20065;-83
2022/03/30 08:52:07;;;;;;;5.72;0.82;;;6.70;99.90;;;;;;5111534;28;20053;-83
2022/03/30 08:54:33;;;;;;;2.63;0.73;;;6.70;99.90;;;;;;5111516;28;20051;-82
2022/03/30 08:56:59;;;;;;;2.42;0.40;;;6.80;99.90;;;;;;5129756;28;20039;-82
2022/03/30 08:59:25;;;;;;;5.65;0.82;;;6.70;99.90;;;;;;5107088;27;20384;-80
2022/03/30 09:01:56;;;;;;;6.93;0.80;;;6.70;99.90;;;;;;5107703;28;20039;-86
2022/03/30 09:04:22;;;;;;;6.30;0.95;;;6.80;99.90;;;;;;5083420;27;20465;-88
2022/03/30 09:06:53;;;;;;;3.88;0.90;;;6.80;99.90;;;;;;5108480;27;20078;-78
2022/03/30 09:09:31;;;;;;;6.35;0.98;;;7.30;99.90;;;;;;5108458;27;20415;-79
2022/03/30 09:11:58;;;;;;;4.45;1.40;;;7.00;99.90;;;;;;5112987;27;20111;-77
2022/03/30 09:14:27;;;;;;;3.78;0.90;;;7.10;99.90;;;;;;5093062;27;21647;-78
2022/03/30 09:16:56;;;;;;;11.80;1.08;;;8.00;99.90;;;;;;5128242;27;20164;-77
2022/03/30 09:19:23;;;;;;;8.35;1.00;;;7.50;99.90;;;;;;5094415;27;20100;-81
2022/03/30 09:21:53;;;;;;;3.55;0.88;;;7.70;99.90;;;;;;5105346;27;20532;-81
2022/03/30 09:24:23;;;;;;;5.65;1.05;;;7.70;99.90;;;;;;5095484;27;20039;-80
2022/03/30 09:26:51;;;;;;;5.05;1.02;;;7.50;99.90;;;;;;5131029;27;20500;-80
2022/03/30 09:29:20;;;;;;;7.53;1.10;;;7.40;99.90;;;;;;5116909;27;20055;-82
2022/03/30 09:31:48;;;;;;;3.03;0.55;;;7.40;99.90;;;;;;5120228;27;20116;-78
2022/03/30 09:34:14;;;;;;;5.00;0.60;;;7.30;99.90;;;;;;5106712;27;20050;-80
2022/03/30 09:36:44;;;;;;;2.55;0.60;;;7.20;99.90;;;;;;5131544;27;20442;-77
2022/03/30 09:39:33;;;;;;;4.95;0.73;;;7.20;99.90;;;;;;5121233;27;20163;-79
2022/03/30 09:42:00;;;;;;;1.70;0.43;;;7.10;99.90;;;;;;5123082;27;20058;-79
2022/03/30 09:44:30;;;;;;;3.80;0.70;;;7.20;99.90;;;;;;5119968;27;20129;-80
2022/03/30 09:47:08;;;;;;;3.25;0.70;;;7.50;99.90;;;;;;5106150;27;20450;-78
2022/03/30 09:49:54;;;;;;;4.55;0.90;;;7.30;99.90;;;;;;5114904;27;20387;-80
2022/03/30 09:52:30;;;;;;;5.72;0.82;;;7.50;99.90;;;;;;5086358;27;20401;-79
2022/03/30 09:54:58;;;;;;;12.68;1.05;;;7.90;99.90;;;;;;5109306;27;20077;-80
2022/03/30 09:57:36;;;;;;;8.80;1.10;;;7.50;99.90;;;;;;5108123;27;20147;-78
2022/03/30 10:00:09;;;;;;;30.23;2.00;;;7.50;99.90;;;;;;5107373;27;20047;-78
2022/03/30 10:02:53;;;;;;;12.05;1.17;;;7.50;99.90;;;;;;5110059;27;20061;-79
2022/03/30 10:05:21;;;;;;;11.60;0.85;;;7.50;99.90;;;;;;5110287;27;20059;-79
2022/03/30 10:07:48;;;;;;;2.80;0.57;;;7.50;99.90;;;;;;5096263;27;20065;-79
2022/03/30 10:10:19;;;;;;;10.40;1.20;;;7.60;99.90;;;;;;5093987;27;20118;-77
2022/03/30 10:12:45;;;;;;;5.07;1.20;;;7.80;99.90;;;;;;5093688;27;20039;-77
2022/03/30 10:15:12;;;;;;;3.90;1.02;;;8.10;99.90;;;;;;5114749;27;20126;-79
2022/03/30 10:17:38;;;;;;;5.30;0.85;;;8.20;99.90;;;;;;5114057;27;20096;-78
2022/03/30 10:20:06;;;;;;;8.15;1.27;;;8.20;99.90;;;;;;5132347;27;20035;-80
2022/03/30 10:23:15;;;;;;;9.25;1.65;;;8.10;99.90;;;;;;5095438;27;20085;-77
2022/03/30 10:26:08;;;;;;;4.75;1.30;;;8.20;99.90;;;;;;5084663;27;20459;-81
2022/03/30 10:28:40;;;;;;;3.05;1.35;;;8.30;99.90;;;;;;5113722;27;20386;-79
2022/03/30 10:31:07;;;;;;;2.78;1.23;;;8.50;99.90;;;;;;5089381;27;20101;-79
2022/03/30 10:33:44;;;;;;;5.60;1.20;;;8.20;99.90;;;;;;5113599;27;20035;-78
2022/03/30 10:36:57;;;;;;;6.22;1.42;;;8.20;99.90;;;;;;5113572;27;20478;-81
2022/03/30 10:39:26;;;;;;;5.78;1.30;;;8.00;99.90;;;;;;5029220;28;20096;-78
2022/03/30 10:42:08;;;;;;;5.03;1.10;;;8.00;99.90;;;;;;5012836;28;20137;-78
2022/03/30 10:44:34;;;;;;;6.80;1.20;;;7.90;99.90;;;;;;5021169;28;20457;-78
2022/03/30 10:47:23;;;;;;;9.35;1.50;;;8.00;99.90;;;;;;5017873;28;20393;-82
2022/03/30 10:49:54;;;;;;;5.78;1.25;;;7.80;99.90;;;;;;5021387;28;20199;-81
2022/03/30 10:52:40;;;;;;;4.18;1.00;;;7.80;99.90;;;;;;4999871;28;20064;-83
2022/03/30 10:55:30;;;;;;;3.63;0.98;;;7.90;99.90;;;;;;5005787;28;20045;-81
2022/03/30 10:58:02;;;;;;;8.25;1.45;;;8.10;99.90;;;;;;4995364;28;20170;-81
2022/03/30 11:00:29;;;;;;;7.45;1.10;;;8.50;99.90;;;;;;5020218;28;20385;-82
2022/03/30 11:03:20;;;;;;;5.13;1.13;;;8.40;99.90;;;;;;5016568;28;20382;-81
2022/03/30 11:06:01;;;;;;;5.25;0.77;;;8.20;99.90;;;;;;4993317;28;20046;-82
2022/03/30 11:08:33;;;;;;;4.55;0.60;;;7.80;99.90;;;;;;4994399;28;20053;-87
2022/03/30 11:11:21;;;;;;;3.70;0.88;;;7.60;99.90;;;;;;5006376;28;20095;-83
2022/03/30 11:13:47;;;;;;;4.18;0.70;;;7.60;99.90;;;;;;5012671;28;20485;-81
2022/03/30 11:16:13;;;;;;;5.32;0.90;;;7.50;99.90;;;;;;5078609;28;20055;-80
2022/03/30 11:19:02;;;;;;;5.47;0.88;;;7.30;99.90;;;;;;5110243;27;20084;-82
2022/03/30 11:21:29;;;;;;;4.38;0.80;;;7.20;99.90;;;;;;5120968;27;20443;-80
2022/03/30 11:24:08;;;;;;;3.40;0.70;;;7.20;99.90;;;;;;5113494;27;20039;-80
2022/03/30 11:27:06;;;;;;;3.70;1.00;;;7.30;99.90;;;;;;5099039;27;20039;-79
2022/03/30 11:29:56;;;;;;;3.63;0.73;;;7.40;99.90;;;;;;5114621;27;20077;-84
2022/03/30 11:32:24;;;;;;;4.78;1.05;;;7.60;99.90;;;;;;5034026;28;20101;-81
2022/03/30 11:34:53;;;;;;;2.78;0.65;;;7.80;99.90;;;;;;5052455;28;20113;-79
2022/03/30 11:37:25;;;;;;;3.25;0.60;;;7.80;99.90;;;;;;5052744;28;20041;-77
2022/03/30 11:39:52;;;;;;;4.43;0.80;;;7.80;99.90;;;;;;5051279;28;20183;-78
2022/03/30 11:42:19;;;;;;;2.50;0.70;;;8.00;99.90;;;;;;5053095;28;20072;-79
2022/03/30 11:47:34;;;;;;;4.07;0.68;;;8.60;99.90;;;;;;5075198;28;20096;-78
2022/03/30 11:50:01;;;;;;;4.22;0.75;;;8.70;99.90;;;;;;5051712;28;20165;-77
2022/03/30 11:52:27;;;;;;;3.70;0.47;;;8.80;99.90;;;;;;5042724;28;20059;-79
2022/03/30 11:54:54;;;;;;;3.00;0.90;;;9.10;99.90;;;;;;5034751;28;20044;-76
2022/03/30 11:57:22;;;;;;;6.25;0.85;;;8.90;99.90;;;;;;5035351;28;20083;-78
2022/03/30 11:59:58;;;;;;;1.75;0.60;;;9.00;99.90;;;;;;5068448;28;20054;-79
2022/03/30 12:02:25;;;;;;;4.35;0.90;;;9.20;99.90;;;;;;5076693;28;20048;-78
2022/03/30 12:04:52;;;;;;;2.78;0.93;;;8.70;99.90;;;;;;5062095;28;20132;-77
2022/03/30 12:07:19;;;;;;;3.63;0.77;;;8.90;99.90;;;;;;5064075;28;20043;-79
2022/03/30 12:09:47;;;;;;;5.32;0.88;;;9.30;99.90;;;;;;5074734;28;20044;-80
2022/03/30 12:12:24;;;;;;;9.45;0.88;;;9.50;99.90;;;;;;5122904;27;20034;-82
2022/03/30 12:15:00;;;;;;;1.58;0.40;;;10.00;99.90;;;;;;5120305;28;20516;-79
2022/03/30 12:17:26;;;;;;;4.07;0.90;;;9.90;99.90;;;;;;5117345;27;20412;-83
2022/03/30 12:19:53;;;;;;;4.97;1.20;;;9.40;99.90;;;;;;5120264;27;20620;-80
2022/03/30 12:22:20;;;;;;;3.28;0.88;;;9.30;99.90;;;;;;5125170;28;20143;-79
2022/03/30 12:24:46;;;;;;;2.67;0.73;;;9.00;99.90;;;;;;5113177;28;20388;-81
2022/03/30 12:27:12;;;;;;;5.05;0.90;;;8.60;99.90;;;;;;5100196;27;20078;-82
2022/03/30 12:29:39;;;;;;;5.35;0.70;;;8.90;99.90;;;;;;5099666;27;20383;-83
2022/03/30 12:32:05;;;;;;;5.18;0.88;;;9.00;99.90;;;;;;5099296;27;20121;-81
2022/03/30 12:34:34;;;;;;;4.30;1.08;;;8.90;99.90;;;;;;5117797;27;20374;-80
2022/03/30 12:37:05;;;;;;;5.03;0.80;;;9.10;99.90;;;;;;5132624;27;20058;-76
2022/03/30 12:39:45;;;;;;;5.43;0.85;;;9.20;99.90;;;;;;5111293;27;20122;-78
2022/03/30 12:42:14;;;;;;;4.63;1.08;;;9.20;99.90;;;;;;5098941;27;20073;-78
2022/03/30 12:44:52;;;;;;;6.30;0.82;;;9.00;99.90;;;;;;5113731;27;20441;-80
2022/03/30 12:47:29;;;;;;;5.40;1.10;;;8.80;99.90;;;;;;5134216;27;20050;-76
2022/03/30 12:49:56;;;;;;;3.60;0.82;;;8.90;99.90;;;;;;5134655;27;20140;-75
2022/03/30 12:52:32;;;;;;;3.33;0.90;;;8.70;99.90;;;;;;5094030;27;20043;-75
2022/03/30 12:55:32;;;;;;;5.03;0.98;;;8.50;99.90;;;;;;5113936;27;20111;-76
2022/03/30 12:58:16;;;;;;;3.75;0.77;;;8.50;99.90;;;;;;5033181;28;20087;-76
2022/03/30 13:01:03;;;;;;;3.22;0.70;;;8.30;99.90;;;;;;5015882;28;20076;-79
2022/03/30 13:03:31;;;;;;;6.22;1.00;;;8.70;99.90;;;;;;5032306;28;20470;-83
2022/03/30 13:06:07;;;;;;;3.95;1.15;;;9.10;99.90;;;;;;5037188;28;20142;-78
2022/03/30 13:08:34;;;;;;;6.78;1.13;;;9.50;99.90;;;;;;5022527;28;20143;-81
2022/03/30 13:11:02;;;;;;;3.42;0.85;;;10.00;99.90;;;;;;5050291;28;20539;-82